Latest Weather Observations for Adelaide Airport

IDS60901

Issued at 1:11 pm CDT Friday 21 January 2022 (issued every 10 minutes, with the page automatically refreshed every 10 minutes)

About weather observations | Map of Adelaide area stations | Latest observations for Adelaide area | Other Formats
Station Details ID: 023034 Name: ADELAIDE AIRPORT Lat: -34.95 Lon: 138.52 Height: 2.0 m
Data from the previous 72 hours. | See also: Recent months at Adelaide Airport
Date/Time
CDT
Temp
°C
App
Temp
°C
Dew
Point
°C
Rel
Hum
%
Delta-T
°C
Wind Press
QNH
hPa
Press
MSL
hPa
Rain since
9am
mm
Dir  Spd
km/h
Gust
km/h
Spd
kts
Gust
kts
21/01:00pm 34.2 29.4 14.7 31 12.0 ENE 33 43 18 23 1016.8 1016.8 0.0
21/12:42pm 34.7 29.7 15.1 31 12.2 NE 35 54 19 29 1016.9 1016.9 0.0
21/12:30pm 33.4 28.7 14.9 32 11.4 NE 33 46 18 25 1017.1 1017.1 0.0
21/12:00pm 33.3 28.6 14.8 32 11.4 ENE 33 48 18 26 1017.5 1017.5 0.0
21/11:30am 33.1 28.2 14.2 32 11.5 NE 33 52 18 28 1017.7 1017.7 0.0
21/11:02am 31.9 27.5 14.1 34 10.8 ENE 30 50 16 27 1018.0 1018.0 0.0
21/11:00am 31.5 27.0 13.7 33 10.7 ENE 30 43 16 23 1018.0 1018.0 0.0
21/10:30am 31.4 26.8 13.6 33 10.7 ENE 30 37 16 20 1018.2 1018.2 0.0
21/10:00am 30.7 25.6 13.0 33 10.5 ENE 32 43 17 23 1018.2 1018.2 0.0
21/09:30am 30.1 25.3 13.0 35 10.1 ENE 30 37 16 20 1018.2 1018.2 0.0
21/09:25am 29.8 24.6 12.7 35 10.1 ENE 32 50 17 27 1018.2 1018.2 0.0
21/09:01am 28.2 22.8 12.1 37 9.3 ENE 32 50 17 27 1018.2 1018.2 0.0
21/09:00am 28.3 22.7 12.2 37 9.3 NE 33 43 18 23 1018.3 1018.3 0.0
21/08:30am 27.5 22.3 11.5 37 9.1 NE 30 41 16 22 1018.3 1018.3 0.0
21/08:00am 28.1 23.3 11.6 36 9.5 ENE 28 39 15 21 1018.1 1018.1 0.0
21/07:32am 27.2 22.3 11.3 37 9.1 ENE 28 50 15 27 1017.7 1017.7 0.0
21/07:30am 27.1 22.5 11.2 37 9.0 ENE 26 33 14 18 1017.7 1017.7 0.0
21/07:00am 26.3 21.3 10.9 38 8.7 ENE 28 37 15 20 1017.5 1017.5 0.0
21/06:30am 26.4 21.4 10.9 38 8.7 ENE 28 41 15 22 1017.5 1017.5 0.0
21/06:00am 26.4 20.9 10.5 37 8.9 NE 30 41 16 22 1017.3 1017.3 0.0
21/05:44am 26.5 21.0 10.6 37 8.9 NE 30 50 16 27 1017.1 1017.1 0.0
21/05:30am 26.6 21.0 10.3 36 9.1 ENE 30 46 16 25 1017.0 1017.0 0.0
21/05:00am 26.8 20.7 10.5 36 9.1 ENE 33 44 18 24 1016.9 1016.9 0.0
21/04:30am 26.8 21.2 10.1 35 9.3 ENE 30 39 16 21 1017.0 1017.0 0.0
21/04:00am 27.1 21.4 9.9 34 9.6 ENE 30 41 16 22 1017.1 1017.1 0.0
21/03:30am 27.2 21.0 9.5 33 9.8 ENE 32 41 17 22 1017.1 1017.1 0.0
21/03:00am 27.6 21.2 9.4 32 10.1 ENE 33 44 18 24 1017.0 1017.0 0.0
21/02:30am 28.1 22.7 9.4 31 10.4 ENE 28 39 15 21 1017.0 1017.0 0.0
21/02:00am 27.8 22.3 9.1 31 10.3 ENE 28 39 15 21 1017.3 1017.3 0.0
21/01:30am 28.2 22.7 9.0 30 10.6 ENE 28 37 15 20 1017.5 1017.5 0.0
21/01:00am 28.6 23.0 8.8 29 10.9 ENE 28 44 15 24 1017.7 1017.7 0.0
21/12:30am 29.0 22.6 8.7 28 11.2 ENE 32 46 17 25 1017.6 1017.6 0.0
21/12:00am 29.2 23.7 7.7 26 11.6 E 26 39 14 21 1017.8 1017.8 0.0
 
Date/Time
CDT
Temp
°C
App
Temp
°C
Dew
Point
°C
Rel
Hum
%
Delta-T
°C
Wind Press
QNH
hPa
Press
MSL
hPa
Rain since
9am
mm
Dir  Spd
km/h
Gust
km/h
Spd
kts
Gust
kts
20/11:30pm 29.3 25.0 7.8 26 11.7 E 20 30 11 16 1017.7 1017.7 0.0
20/11:00pm 28.9 25.0 6.9 25 11.7 E 17 20 9 11 1017.8 1017.8 0.0
20/10:30pm 29.4 25.4 6.7 24 12.1 ENE 17 22 9 12 1017.7 1017.7 0.0
20/10:00pm 29.6 25.5 6.3 23 12.4 E 17 22 9 12 1017.5 1017.5 0.0
20/09:30pm 30.4 26.2 5.6 21 13.0 ENE 17 22 9 12 1017.2 1017.2 0.0
20/09:00pm 30.7 26.0 5.2 20 13.3 E 19 26 10 14 1016.6 1016.6 0.0
20/08:30pm 31.7 26.3 4.5 18 14.2 ENE 22 32 12 17 1016.3 1016.3 0.0
20/08:00pm 32.7 25.8 4.5 17 14.8 ENE 30 39 16 21 1016.0 1016.0 0.0
20/07:30pm 33.4 28.1 5.0 17 15.0 ENE 22 35 12 19 1015.8 1015.8 0.0
20/07:00pm 33.9 26.6 4.6 16 15.5 ENE 32 50 17 27 1015.7 1015.7 0.0
20/06:54pm 34.2 27.2 3.9 15 15.9 ENE 30 50 16 27 1015.6 1015.6 0.0
20/06:30pm 34.4 26.8 4.0 15 15.9 ENE 33 44 18 24 1015.6 1015.6 0.0
20/06:18pm 34.7 28.1 4.3 15 16.1 E 28 48 15 26 1015.5 1015.5 0.0
20/06:00pm 34.5 27.3 5.0 16 15.7 E 32 41 17 22 1015.6 1015.6 0.0
20/05:41pm 34.6 27.2 4.2 15 16.0 E 32 50 17 27 1015.6 1015.6 0.0
20/05:39pm 34.9 28.2 5.4 16 15.9 E 30 50 16 27 1015.6 1015.6 0.0
20/05:30pm 35.6 28.8 5.0 15 16.4 ENE 30 39 16 21 1015.7 1015.7 0.0
20/05:07pm 35.2 28.5 5.6 16 16.0 ENE 30 48 16 26 1015.9 1015.9 0.0
20/05:00pm 34.9 27.2 5.4 16 15.9 E 35 48 19 26 1016.0 1016.0 0.0
20/04:36pm 34.6 27.6 6.0 17 15.5 ENE 32 52 17 28 1016.0 1016.0 0.0
20/04:30pm 34.9 27.8 6.2 17 15.6 ENE 33 50 18 27 1016.2 1016.2 0.0
20/04:00pm 35.3 28.4 7.4 18 15.5 ENE 33 52 18 28 1016.4 1016.4 0.0
20/03:41pm 34.5 27.1 5.0 16 15.7 ENE 33 54 18 29 1016.6 1016.6 0.0
20/03:30pm 34.6 27.6 6.8 18 15.2 E 33 46 18 25 1017.0 1017.0 0.0
20/03:15pm 33.6 27.5 6.8 19 14.6 ENE 28 46 15 25 1017.1 1017.1 0.0
20/03:00pm 34.4 27.4 6.7 18 15.2 ENE 33 48 18 26 1017.3 1017.3 0.0
20/02:30pm 34.0 27.2 7.9 20 14.5 ENE 33 50 18 27 1017.8 1017.8 0.0
20/02:04pm 34.0 28.0 8.6 21 14.3 E 30 48 16 26 1018.0 1018.0 0.0
20/02:00pm 33.7 27.1 7.6 20 14.5 E 32 43 17 23 1017.9 1017.9 0.0
20/01:30pm 32.9 25.1 8.4 22 13.7 E 39 54 21 29 1018.2 1018.2 0.0
20/01:08pm 33.5 26.8 9.5 23 13.7 ENE 35 56 19 30 1018.3 1018.3 0.0
20/01:00pm 32.8 25.2 8.9 23 13.5 ENE 39 54 21 29 1018.5 1018.5 0.0
20/12:35pm 32.8 26.3 10.2 25 13.0 E 35 54 19 29 1018.8 1018.8 0.0
20/12:30pm 32.4 25.9 11.6 28 12.2 E 37 52 20 28 1018.8 1018.8 0.0
20/12:00pm 32.4 24.8 10.4 26 12.6 ENE 41 56 22 30 1019.2 1019.2 0.0
20/11:30am 31.0 24.4 11.4 30 11.4 E 37 56 20 30 1019.4 1019.4 0.0
20/11:06am 30.8 25.9 12.7 33 10.7 ENE 30 48 16 26 1019.7 1019.7 0.0
20/11:00am 30.9 25.7 12.8 33 10.7 ENE 32 43 17 23 1019.8 1019.8 0.0
20/10:35am 30.8 26.2 13.6 35 10.3 E 30 50 16 27 1019.9 1019.9 0.0
20/10:30am 30.0 25.3 13.3 36 9.9 E 30 39 16 21 1019.8 1019.8 0.0
20/10:00am 29.3 24.5 13.9 39 9.2 ENE 32 41 17 22 1020.0 1020.0 0.0
20/09:30am 29.2 24.8 14.2 40 9.0 NE 30 43 16 23 1020.0 1020.0 0.0
20/09:00am 27.7 23.5 14.7 45 7.8 ENE 30 43 16 23 1020.0 1020.0 0.0
20/08:30am 26.8 24.0 16.4 53 6.4 ENE 26 37 14 20 1019.8 1019.8 0.0
20/08:00am 26.2 23.7 16.2 54 6.1 ENE 24 32 13 17 1019.7 1019.7 0.0
20/07:30am 25.4 23.3 16.3 57 5.6 E 22 33 12 18 1019.5 1019.5 0.0
20/07:00am 24.2 23.0 16.2 61 4.9 E 17 26 9 14 1019.4 1019.4 0.0
20/06:30am 23.6 22.7 15.9 62 4.6 E 15 19 8 10 1019.2 1019.2 0.0
20/06:00am 23.7 22.7 15.5 60 4.9 E 15 19 8 10 1018.8 1018.8 0.0
20/05:30am 24.0 23.0 15.5 59 5.1 E 15 17 8 9 1018.4 1018.4 0.0
20/05:00am 24.6 23.1 15.2 55 5.6 E 17 20 9 11 1018.0 1018.0 0.0
20/04:30am 25.4 23.4 15.4 54 6.0 E 20 28 11 15 1017.7 1017.7 0.0
20/04:00am 25.5 23.4 14.6 51 6.5 E 19 30 10 16 1017.2 1017.2 0.0
20/03:30am 25.8 23.1 13.6 46 7.2 E 20 28 11 15 1016.8 1016.8 0.0
20/03:00am 26.2 23.1 12.3 42 8.0 E 20 26 11 14 1016.7 1016.7 0.0
20/02:30am 25.8 22.7 10.4 38 8.6 E 17 22 9 12 1016.6 1016.6 0.0
20/02:00am 25.9 21.4 10.1 37 8.8 ESE 24 33 13 18 1016.5 1016.5 0.0
20/01:30am 24.6 21.6 9.3 38 8.3 E 15 24 8 13 1016.6 1016.6 0.0
20/01:00am 24.6 21.3 9.7 39 8.2 SE 17 30 9 16 1016.7 1016.7 0.0
20/12:30am 23.3 21.3 10.0 43 7.3 SSE 11 13 6 7 1016.8 1016.8 0.0
20/12:00am 21.7 19.7 10.2 48 6.2 S 11 13 6 7 1016.9 1016.9 0.0
 
Date/Time
CDT
Temp
°C
App
Temp
°C
Dew
Point
°C
Rel
Hum
%
Delta-T
°C
Wind Press
QNH
hPa
Press
MSL
hPa
Rain since
9am
mm
Dir  Spd
km/h
Gust
km/h
Spd
kts
Gust
kts
19/11:30pm 22.1 19.8 10.3 47 6.4 S 13 19 7 10 1016.8 1016.8 0.0
19/11:00pm 22.2 20.3 10.4 47 6.5 SSW 11 15 6 8 1017.0 1017.0 0.0
19/10:30pm 22.7 20.4 10.5 46 6.7 S 13 19 7 10 1017.2 1017.2 0.0
19/10:00pm 23.7 21.0 10.4 43 7.3 S 15 20 8 11 1017.0 1017.0 0.0
19/09:30pm 24.3 21.3 10.6 42 7.6 SSE 17 20 9 11 1016.7 1016.7 0.0
19/09:00pm 24.8 22.5 10.3 40 8.0 S 13 17 7 9 1016.5 1016.5 0.0
19/08:30pm 26.7 24.0 9.1 33 9.6 SSE 13 19 7 10 1016.3 1016.3 0.0
19/08:00pm 27.8 24.8 9.1 31 10.3 SE 15 19 8 10 1016.0 1016.0 0.0
19/07:30pm 28.6 25.1 8.8 29 10.9 SE 17 24 9 13 1015.9 1015.9 0.0
19/07:00pm 29.3 25.0 7.8 26 11.7 ESE 20 30 11 16 1015.6 1015.6 0.0
19/06:30pm 29.0 23.6 8.1 27 11.4 SE 26 35 14 19 1015.4 1015.4 0.0
19/06:00pm 28.8 23.0 7.9 27 11.3 SE 28 35 15 19 1015.2 1015.2 0.0
19/05:30pm 29.4 24.2 7.3 25 11.9 ESE 24 32 13 17 1015.4 1015.4 0.0
19/05:00pm 29.0 23.9 7.6 26 11.6 ESE 24 33 13 18 1015.6 1015.6 0.0
19/04:30pm 29.3 25.0 7.8 26 11.7 SE 20 35 11 19 1015.7 1015.7 0.0
19/04:00pm 28.5 24.4 7.7 27 11.2 ESE 19 35 10 19 1015.9 1015.9 0.0
19/03:30pm 28.2 24.5 8.0 28 10.9 E 17 26 9 14 1016.3 1016.3 0.0
19/03:00pm 26.2 25.0 11.5 40 8.4 SE 9 22 5 12 1016.4 1016.4 0.0
19/02:30pm 25.7 23.7 11.5 41 8.0 SE 13 20 7 11 1016.8 1016.8 0.0
19/02:00pm 25.9 23.0 8.0 32 9.6 SSE 13 22 7 12 1017.2 1017.2 0.0
19/01:30pm 25.7 22.1 8.2 33 9.4 S 17 26 9 14 1017.5 1017.5 0.0
19/01:00pm 24.7 20.7 9.0 37 8.5 S 20 39 11 21 1018.0 1018.0 0.0
19/12:30pm 24.8 21.5 9.5 38 8.3 ESE 17 26 9 14 1018.2 1018.2 0.0
19/12:00pm 23.9 20.1 9.1 39 8.0 SSE 19 26 10 14 1018.6 1018.6 0.0
19/11:30am 23.2 19.2 9.2 41 7.5 SE 20 30 11 16 1018.8 1018.8 0.0
19/11:00am 22.0 18.0 8.9 43 7.0 ESE 20 35 11 19 1018.8 1018.8 0.0
19/10:30am 21.5 17.1 9.1 45 6.6 ESE 22 33 12 18 1018.7 1018.7 0.0
19/10:00am 20.4 16.1 9.3 49 5.9 ESE 22 30 12 16 1019.0 1019.0 0.0
19/09:30am 19.6 14.4 8.9 50 5.6 ESE 26 37 14 20 1019.1 1019.1 0.0
19/09:00am 18.7 13.9 8.9 53 5.1 ESE 24 33 13 18 1019.1 1019.1 0.0
19/08:30am 17.5 12.4 9.2 58 4.3 ESE 26 33 14 18 1019.0 1019.0 0.0
19/08:00am 16.8 12.0 9.0 60 4.0 ESE 24 32 13 17 1018.8 1018.8 0.0
19/07:30am 16.2 11.8 8.9 62 3.7 E 22 30 12 16 1018.4 1018.4 0.0
19/07:00am 15.2 10.8 8.9 66 3.2 ESE 22 32 12 17 1017.9 1017.9 0.0
19/06:30am 14.9 11.0 8.6 66 3.2 ESE 19 28 10 15 1017.6 1017.6 0.0
19/06:00am 14.9 10.8 8.6 66 3.2 ESE 20 35 11 19 1017.3 1017.3 0.0
19/05:30am 15.3 10.1 8.8 65 3.3 ESE 26 37 14 20 1016.9 1016.9 0.0
19/05:00am 15.4 9.8 8.9 65 3.3 SE 28 39 15 21 1016.8 1016.8 0.0
19/04:33am 15.6 9.3 9.1 65 3.3 SE 32 50 17 27 1016.5 1016.5 0.0
19/04:30am 15.6 9.3 9.1 65 3.3 SE 32 46 17 25 1016.5 1016.5 0.0
19/04:00am 15.8 9.4 9.2 65 3.4 SE 33 52 18 28 1016.5 1016.5 0.0
19/03:32am 16.0 9.8 9.2 64 3.5 SE 32 54 17 29 1016.5 1016.5 0.0
19/03:30am 16.1 9.9 9.3 64 3.5 SE 32 44 17 24 1016.5 1016.5 0.0
19/03:00am 16.4 8.6 9.6 64 3.5 SE 41 59 22 32 1016.3 1016.3 0.0
19/02:30am 16.6 9.1 9.5 63 3.7 SE 39 61 21 33 1016.2 1016.2 0.0
19/02:00am 16.9 10.0 10.3 65 3.5 SE 37 57 20 31 1016.4 1016.4 0.0
19/01:30am 17.0 10.7 11.1 68 3.2 SE 35 56 19 30 1016.5 1016.5 0.0
19/01:00am 17.2 10.6 11.2 68 3.2 SE 37 50 20 27 1016.6 1016.6 0.0
19/12:32am 17.3 11.1 11.3 68 3.2 SE 35 54 19 29 1016.7 1016.7 0.0
19/12:30am 17.3 10.7 11.3 68 3.2 SE 37 54 20 29 1016.7 1016.7 0.0
19/12:00am 17.2 11.6 11.5 69 3.1 SE 32 52 17 28 1016.6 1016.6 0.0
 
Date/Time
CDT
Temp
°C
App
Temp
°C
Dew
Point
°C
Rel
Hum
%
Delta-T
°C
Wind Press
QNH
hPa
Press
MSL
hPa
Rain since
9am
mm
Dir  Spd
km/h
Gust
km/h
Spd
kts
Gust
kts
18/11:47pm 17.1 11.5 11.6 70 3.0 SE 32 50 17 27 1016.6 1016.6 0.0
18/11:30pm 17.2 11.6 11.5 69 3.1 SE 32 46 17 25 1016.5 1016.5 0.0
18/11:02pm 17.3 12.0 11.3 68 3.2 SE 30 48 16 26 1016.6 1016.6 0.0
18/11:00pm 17.2 11.5 11.0 67 3.3 SSE 32 48 17 26 1016.7 1016.7 0.0
18/10:30pm 17.4 13.6 11.2 67 3.3 SSE 22 33 12 18 1017.2 1017.2 0.0
18/10:00pm 17.4 12.8 11.0 66 3.4 SSE 26 35 14 19 1017.0 1017.0 0.0
18/09:30pm 17.6 12.2 10.9 65 3.6 SSE 30 39 16 21 1016.9 1016.9 0.0
18/09:00pm 17.8 12.0 10.9 64 3.7 SSE 32 44 17 24 1016.9 1016.9 0.0
18/08:30pm 18.2 13.0 10.3 60 4.2 SSE 28 41 15 22 1017.0 1017.0 0.0
18/08:00pm 18.7 12.5 10.0 57 4.6 SSE 33 50 18 27 1016.4 1016.4 0.0
18/07:30pm 19.1 13.3 9.3 53 5.2 SSE 30 41 16 22 1016.1 1016.1 0.0
18/07:00pm 20.1 14.0 10.5 54 5.2 SSE 33 41 18 22 1015.9 1015.9 0.0
18/06:30pm 20.7 14.5 10.2 51 5.7 SSE 33 43 18 23 1015.4 1015.4 0.0
18/06:00pm 20.7 14.9 9.3 48 6.1 SSE 30 39 16 21 1015.4 1015.4 0.0
18/05:30pm 21.7 15.6 9.6 46 6.5 SSE 32 43 17 23 1015.2 1015.2 0.0
18/05:00pm 22.4 16.8 8.9 42 7.2 SE 28 35 15 19 1014.9 1014.9 0.0
18/04:30pm 23.5 18.6 8.4 38 8.0 SE 24 39 13 21 1015.2 1015.2 0.0
18/04:07pm 23.0 17.2 7.9 38 7.9 SSE 28 48 15 26 1015.0 1015.0 0.0
18/04:00pm 23.0 16.9 8.3 39 7.8 SE 30 41 16 22 1015.1 1015.1 0.0
18/03:30pm 23.3 17.9 7.8 37 8.1 SE 26 37 14 20 1015.2 1015.2 0.0
18/03:00pm 23.5 17.3 8.0 37 8.2 SSE 30 41 16 22 1015.2 1015.2 0.0
18/02:30pm 24.3 18.5 7.9 35 8.7 SSE 28 39 15 21 1015.2 1015.2 0.0
18/02:00pm 24.5 19.0 7.6 34 8.9 SE 26 39 14 21 1015.4 1015.4 0.0
18/01:30pm 24.3 19.5 8.7 37 8.4 SE 24 37 13 20 1015.8 1015.8 0.0

Latest Capital City Observations: Canberra | Sydney | Melbourne | Brisbane | Adelaide | Perth | Hobart | Darwin

Other formats

Comma delimited format used in spreadsheet applications
http://www.bom.gov.au/fwo/IDS60901/IDS60901.94672.axf

JavaScript Object Notation format (JSON) in row-major order
http://www.bom.gov.au/fwo/IDS60901/IDS60901.94672.json

Data quality

Most of these data are generated automatically and are frequently updated. Quality checks on data are not normally performed. It is possible for incorrect values to appear. Refer to information at About Latest Weather Observations and please check the disclaimer before using these data.